Time;durP1;ratioP1;P1;durP2;ratioP2;P2;SDS_P1;SDS_P2;PMS_P1;PMS_P2;Temp;Humidity;BMP_temperature;BMP_pressure;BME280_temperature;BME280_humidity;BME280_pressure;Samples;Min_cycle;Max_cycle;Signal;HPM_P1;HPM_P2
2021/09/23 00:02:46;;;;;;;8.50;6.32;;;12.40;93.20;;;;;;5078697;28;20389;-68
2021/09/23 00:05:21;;;;;;;10.43;7.28;;;12.40;93.30;;;;;;5058758;28;20473;-69
2021/09/23 00:07:49;;;;;;;10.52;6.93;;;12.40;93.70;;;;;;5067994;28;20103;-68
2021/09/23 00:10:22;;;;;;;9.45;7.32;;;12.30;93.60;;;;;;5089551;28;20146;-68
2021/09/23 00:12:50;;;;;;;10.43;7.93;;;12.40;94.00;;;;;;5085870;28;20109;-68
2021/09/23 00:15:17;;;;;;;11.32;8.02;;;12.40;93.90;;;;;;5067313;28;20040;-68
2021/09/23 00:17:49;;;;;;;8.77;6.78;;;12.40;93.60;;;;;;5083762;28;20049;-68
2021/09/23 00:20:17;;;;;;;11.25;7.43;;;12.40;93.60;;;;;;5057694;28;20459;-68
2021/09/23 00:22:44;;;;;;;8.65;6.80;;;12.50;93.90;;;;;;5066575;28;20051;-69
2021/09/23 00:25:11;;;;;;;12.68;6.95;;;12.50;93.80;;;;;;5065345;28;20066;-68
2021/09/23 00:27:38;;;;;;;8.40;6.60;;;12.50;93.80;;;;;;5065603;28;20169;-68
2021/09/23 00:30:07;;;;;;;11.35;8.23;;;12.50;94.10;;;;;;5061466;28;20087;-69
2021/09/23 00:32:34;;;;;;;9.32;7.45;;;12.50;93.70;;;;;;5058003;28;20055;-68
2021/09/23 00:35:01;;;;;;;11.80;7.90;;;12.50;93.90;;;;;;5073064;28;20079;-71
2021/09/23 00:37:28;;;;;;;9.88;7.22;;;12.50;93.90;;;;;;5065825;28;20048;-67
2021/09/23 00:39:55;;;;;;;10.52;8.27;;;12.50;93.70;;;;;;5054014;28;20056;-69
2021/09/23 00:42:22;;;;;;;11.35;8.80;;;12.40;93.70;;;;;;5059245;28;20087;-69
2021/09/23 00:45:08;;;;;;;10.60;6.93;;;12.40;93.40;;;;;;5070969;28;20512;-70
2021/09/23 00:47:36;;;;;;;10.52;7.85;;;12.40;93.50;;;;;;5042428;28;20044;-69
2021/09/23 00:50:03;;;;;;;10.48;8.30;;;12.30;94.00;;;;;;5063323;28;20091;-69
2021/09/23 00:52:31;;;;;;;9.73;8.18;;;12.30;93.90;;;;;;5064815;28;20105;-70
2021/09/23 00:54:58;;;;;;;11.38;8.38;;;12.30;94.00;;;;;;5036563;28;20381;-70
2021/09/23 00:57:25;;;;;;;10.32;7.90;;;12.20;94.10;;;;;;5062973;28;20162;-70
2021/09/23 00:59:53;;;;;;;10.25;8.02;;;12.20;93.90;;;;;;5064888;28;20044;-70
2021/09/23 01:02:21;;;;;;;12.35;8.60;;;12.20;93.70;;;;;;5078926;28;20132;-68
2021/09/23 01:04:49;;;;;;;11.55;9.90;;;12.20;93.90;;;;;;5049802;28;20044;-70
2021/09/23 01:07:18;;;;;;;13.43;8.45;;;12.20;94.30;;;;;;5061590;28;20172;-70
2021/09/23 01:09:49;;;;;;;12.68;8.85;;;12.20;94.50;;;;;;5054567;28;20056;-70
2021/09/23 01:12:16;;;;;;;11.23;8.57;;;12.20;94.30;;;;;;5084063;28;20130;-68
2021/09/23 01:14:44;;;;;;;9.85;7.45;;;12.20;94.40;;;;;;5034464;28;20097;-68
2021/09/23 01:17:11;;;;;;;11.05;8.70;;;12.20;94.20;;;;;;5066316;28;20147;-68
2021/09/23 01:19:39;;;;;;;15.05;8.52;;;12.20;94.20;;;;;;5063502;28;20056;-69
2021/09/23 01:22:06;;;;;;;10.98;7.45;;;12.20;94.40;;;;;;5053315;28;20045;-69
2021/09/23 01:24:35;;;;;;;13.32;8.82;;;12.20;94.70;;;;;;5082410;28;20048;-70
2021/09/23 01:27:02;;;;;;;10.77;8.82;;;12.20;94.40;;;;;;5065294;28;20449;-68
2021/09/23 01:29:29;;;;;;;10.48;8.95;;;12.20;94.40;;;;;;5075888;28;20071;-68
2021/09/23 01:31:57;;;;;;;12.23;8.23;;;12.20;94.50;;;;;;5044734;28;20089;-68
2021/09/23 01:34:24;;;;;;;13.02;8.70;;;12.20;94.60;;;;;;5075976;28;20475;-68
2021/09/23 01:36:51;;;;;;;11.45;8.15;;;12.20;94.90;;;;;;5068541;28;20105;-67
2021/09/23 01:39:22;;;;;;;12.10;9.07;;;12.20;94.80;;;;;;5051974;28;20044;-70
2021/09/23 01:41:50;;;;;;;10.80;8.15;;;12.20;94.70;;;;;;5064859;28;20413;-70
2021/09/23 01:44:17;;;;;;;9.52;8.32;;;12.20;94.80;;;;;;5071541;28;20048;-69
2021/09/23 01:46:44;;;;;;;11.75;8.45;;;12.20;94.40;;;;;;5056823;28;20083;-70
2021/09/23 01:49:11;;;;;;;10.57;8.27;;;12.10;94.60;;;;;;5067236;28;20097;-69
2021/09/23 01:51:38;;;;;;;16.15;8.15;;;12.20;94.80;;;;;;5074960;28;20383;-70
2021/09/23 01:54:05;;;;;;;10.32;8.07;;;12.10;94.70;;;;;;5052734;28;20219;-69
2021/09/23 01:56:35;;;;;;;11.27;8.10;;;12.20;95.00;;;;;;5071404;28;20045;-70
2021/09/23 01:59:02;;;;;;;11.77;7.25;;;12.20;95.10;;;;;;5070498;28;20051;-68
2021/09/23 02:01:29;;;;;;;10.02;7.30;;;12.20;94.60;;;;;;5068154;28;20361;-68
2021/09/23 02:04:00;;;;;;;10.50;7.38;;;12.20;94.90;;;;;;5057395;28;20110;-69
2021/09/23 02:06:27;;;;;;;9.95;7.60;;;12.20;94.80;;;;;;5061562;28;20048;-68
2021/09/23 02:08:54;;;;;;;9.73;7.43;;;12.20;94.90;;;;;;5054517;28;20045;-68
2021/09/23 02:11:21;;;;;;;10.95;7.20;;;12.20;94.90;;;;;;5086920;28;20126;-68
2021/09/23 02:13:48;;;;;;;10.27;7.93;;;12.20;94.60;;;;;;5058179;28;20120;-68
2021/09/23 02:16:15;;;;;;;10.05;7.40;;;12.20;94.50;;;;;;5052761;28;20572;-69
2021/09/23 02:18:51;;;;;;;10.13;7.20;;;12.20;94.50;;;;;;5073719;28;20040;-68
2021/09/23 02:21:19;;;;;;;9.70;7.22;;;12.20;94.70;;;;;;5045740;28;20438;-68
2021/09/23 02:23:50;;;;;;;;;;;12.20;94.50;;;;;;5075623;28;20048;-68
2021/09/23 02:26:18;;;;;;;10.77;8.25;;;12.20;94.80;;;;;;5068033;28;19920;-69
2021/09/23 02:28:45;;;;;;;9.73;7.28;;;12.20;94.50;;;;;;5070841;28;20521;-68
2021/09/23 02:31:12;;;;;;;10.23;7.20;;;12.20;94.70;;;;;;5055182;28;20492;-68
2021/09/23 02:33:39;;;;;;;9.63;7.35;;;12.10;94.60;;;;;;5040067;28;20514;-68
2021/09/23 02:36:06;;;;;;;12.00;7.78;;;12.10;94.60;;;;;;5079292;28;20061;-68
2021/09/23 02:38:34;;;;;;;9.98;7.38;;;12.10;94.70;;;;;;5061037;28;20127;-69
2021/09/23 02:41:01;;;;;;;8.95;7.55;;;12.10;94.50;;;;;;5050559;28;20496;-68
2021/09/23 02:43:29;;;;;;;8.98;7.88;;;12.00;94.70;;;;;;5081724;28;20107;-69
2021/09/23 02:45:59;;;;;;;9.68;8.68;;;12.10;94.70;;;;;;5062671;28;20070;-69
2021/09/23 02:48:26;;;;;;;11.40;8.07;;;12.10;94.70;;;;;;5035332;28;20045;-69
2021/09/23 02:50:56;;;;;;;9.82;6.93;;;12.10;94.70;;;;;;5046633;28;20040;-69
2021/09/23 02:53:23;;;;;;;7.63;6.55;;;12.20;94.60;;;;;;5066851;28;20060;-70
2021/09/23 02:55:50;;;;;;;7.28;6.28;;;12.30;94.60;;;;;;5075761;28;20571;-68
2021/09/23 02:58:17;;;;;;;8.88;6.63;;;12.40;94.40;;;;;;5074312;28;20567;-69
2021/09/23 03:00:44;;;;;;;9.63;6.80;;;12.50;94.50;;;;;;5076803;28;20087;-70
2021/09/23 03:03:14;;;;;;;9.40;7.43;;;12.60;93.90;;;;;;5090653;28;20052;-68
2021/09/23 03:05:44;;;;;;;9.30;7.65;;;12.70;93.90;;;;;;5053890;28;20053;-68
2021/09/23 03:08:12;;;;;;;11.93;8.25;;;12.80;93.60;;;;;;5069854;28;20483;-70
2021/09/23 03:10:48;;;;;;;9.93;8.82;;;12.80;93.40;;;;;;5068098;28;20089;-69
2021/09/23 03:13:18;;;;;;;9.23;8.30;;;12.90;93.50;;;;;;5063608;28;20132;-69
2021/09/23 03:15:46;;;;;;;11.70;9.73;;;13.00;93.10;;;;;;5059907;28;20147;-69
2021/09/23 03:18:14;;;;;;;11.35;10.10;;;13.00;93.00;;;;;;5088029;28;20075;-70
2021/09/23 03:20:44;;;;;;;12.98;10.23;;;13.10;92.80;;;;;;5067180;28;20101;-70
2021/09/23 03:23:12;;;;;;;11.18;9.55;;;13.10;92.80;;;;;;5056964;28;20105;-69
2021/09/23 03:25:39;;;;;;;10.77;9.15;;;13.20;92.80;;;;;;5066545;28;20125;-68
2021/09/23 03:28:06;;;;;;;12.10;9.45;;;13.20;92.70;;;;;;5078879;28;20048;-68
2021/09/23 03:30:34;;;;;;;10.75;8.48;;;13.20;92.60;;;;;;5055778;28;20097;-69
2021/09/23 03:33:05;;;;;;;11.57;8.50;;;13.30;92.60;;;;;;5067237;28;20053;-70
2021/09/23 03:35:34;;;;;;;9.65;8.23;;;13.40;92.40;;;;;;5073055;28;20089;-70
2021/09/23 03:38:02;;;;;;;9.55;8.32;;;13.40;92.40;;;;;;5082200;28;20131;-69
2021/09/23 03:40:29;;;;;;;10.15;9.15;;;13.40;92.30;;;;;;5083915;28;20480;-70
2021/09/23 03:42:57;;;;;;;9.35;7.90;;;13.40;92.30;;;;;;5066654;28;20056;-70
2021/09/23 03:45:24;;;;;;;9.13;8.23;;;13.50;92.00;;;;;;5067551;28;20137;-70
2021/09/23 03:47:51;;;;;;;9.70;8.73;;;13.50;91.90;;;;;;5080702;28;20040;-69
2021/09/23 03:50:19;;;;;;;10.70;8.18;;;13.50;92.00;;;;;;5072065;28;20044;-68
2021/09/23 03:52:47;;;;;;;11.68;8.05;;;13.50;91.90;;;;;;5060888;28;20096;-69
2021/09/23 03:55:15;;;;;;;9.68;8.77;;;13.50;91.80;;;;;;5076992;28;20052;-69
2021/09/23 03:57:44;;;;;;;9.85;8.57;;;13.50;91.90;;;;;;5084994;28;20098;-68
2021/09/23 04:00:12;;;;;;;10.10;8.25;;;13.50;91.90;;;;;;5043046;28;20063;-69
2021/09/23 04:02:42;;;;;;;8.93;7.97;;;13.50;91.90;;;;;;5062631;28;20048;-68
2021/09/23 04:05:10;;;;;;;13.38;8.45;;;13.40;91.80;;;;;;5073892;28;20050;-69
2021/09/23 04:07:37;;;;;;;10.60;8.65;;;13.30;91.90;;;;;;5072601;28;20830;-69
2021/09/23 04:10:05;;;;;;;9.70;8.73;;;13.20;91.80;;;;;;5059858;28;20052;-68
2021/09/23 04:12:32;;;;;;;13.23;9.00;;;13.10;92.00;;;;;;5070032;28;20055;-69
2021/09/23 04:14:59;;;;;;;10.18;9.10;;;13.10;92.10;;;;;;5063979;28;20040;-68
2021/09/23 04:17:29;;;;;;;9.30;8.40;;;13.00;92.10;;;;;;5051524;28;20105;-68
2021/09/23 04:19:56;;;;;;;;;;;12.90;92.40;;;;;;5089903;28;20044;-69
2021/09/23 04:22:26;;;;;;;9.85;8.85;;;12.80;92.40;;;;;;5087184;28;19932;-68
2021/09/23 04:24:53;;;;;;;11.55;9.52;;;12.80;92.50;;;;;;5077435;28;20441;-69
2021/09/23 04:27:20;;;;;;;13.73;9.38;;;12.70;92.50;;;;;;5086980;28;20127;-68
2021/09/23 04:29:47;;;;;;;9.93;8.93;;;12.70;92.50;;;;;;5058230;28;20448;-69
2021/09/23 04:32:14;;;;;;;10.77;9.65;;;12.60;92.60;;;;;;5084160;28;20451;-68
2021/09/23 04:34:42;;;;;;;10.80;9.40;;;12.60;92.70;;;;;;5072851;28;20048;-68
2021/09/23 04:37:09;;;;;;;11.48;9.82;;;12.50;92.80;;;;;;5089531;28;20131;-68
2021/09/23 04:39:35;;;;;;;11.77;9.40;;;12.50;92.80;;;;;;5044176;28;20108;-68
2021/09/23 04:42:02;;;;;;;11.23;10.13;;;12.40;92.90;;;;;;5066201;28;20123;-68
2021/09/23 04:44:30;;;;;;;12.43;9.50;;;12.40;93.10;;;;;;5076072;28;20139;-68
2021/09/23 04:46:57;;;;;;;14.70;9.77;;;12.30;93.10;;;;;;5087740;28;20131;-68
2021/09/23 04:49:24;;;;;;;12.52;9.38;;;12.20;93.10;;;;;;5076747;28;20097;-69
2021/09/23 04:51:51;;;;;;;10.43;9.35;;;12.20;93.20;;;;;;5068659;28;20048;-69
2021/09/23 04:54:18;;;;;;;11.38;9.55;;;12.20;93.20;;;;;;5062651;28;20452;-68
2021/09/23 04:56:45;;;;;;;15.57;10.75;;;12.10;93.50;;;;;;5061014;28;20087;-68
2021/09/23 04:59:13;;;;;;;11.63;10.07;;;12.10;93.60;;;;;;5041327;28;20048;-68
2021/09/23 05:01:40;;;;;;;13.68;11.20;;;12.10;93.20;;;;;;5075317;28;20048;-69
2021/09/23 05:04:07;;;;;;;12.50;11.23;;;12.00;93.80;;;;;;5069032;28;20041;-68
2021/09/23 05:06:35;;;;;;;12.05;10.68;;;12.00;93.70;;;;;;5046679;28;20123;-68
2021/09/23 05:09:02;;;;;;;14.55;11.25;;;12.00;93.70;;;;;;5042597;28;20035;-68
2021/09/23 05:11:29;;;;;;;13.85;11.75;;;12.00;93.80;;;;;;5070251;28;20098;-68
2021/09/23 05:13:56;;;;;;;14.18;11.38;;;12.00;94.00;;;;;;5039319;28;20487;-68
2021/09/23 05:16:24;;;;;;;12.32;10.98;;;11.90;93.80;;;;;;5070333;28;20049;-68
2021/09/23 05:18:51;;;;;;;14.60;10.98;;;11.90;93.90;;;;;;5069304;28;20102;-69
2021/09/23 05:21:18;;;;;;;12.73;10.40;;;11.90;94.10;;;;;;5070740;28;20072;-68
2021/09/23 05:23:45;;;;;;;11.90;9.45;;;11.90;94.20;;;;;;5077529;28;20048;-68
2021/09/23 05:26:12;;;;;;;12.65;9.05;;;11.90;94.20;;;;;;5081685;28;20051;-68
2021/09/23 05:28:39;;;;;;;11.25;9.82;;;11.90;94.20;;;;;;5077576;28;20127;-68
2021/09/23 05:31:07;;;;;;;11.57;9.55;;;11.90;94.20;;;;;;5062791;28;20053;-68
2021/09/23 05:33:34;;;;;;;22.13;19.77;;;11.90;94.20;;;;;;5046289;28;20507;-68
2021/09/23 05:36:01;;;;;;;14.10;12.60;;;11.90;94.50;;;;;;5074486;28;20075;-68
2021/09/23 05:38:28;;;;;;;58.40;43.50;;;12.00;94.10;;;;;;5055890;28;20416;-68
2021/09/23 05:40:59;;;;;;;25.67;22.95;;;12.00;94.20;;;;;;5084115;28;20070;-68
2021/09/23 05:43:26;;;;;;;73.82;55.85;;;12.00;94.30;;;;;;5043343;28;20052;-67
2021/09/23 05:45:54;;;;;;;33.85;26.23;;;12.10;94.50;;;;;;5063485;28;20044;-69
2021/09/23 05:48:22;;;;;;;9.90;8.68;;;12.10;94.20;;;;;;5063216;28;20395;-70
2021/09/23 05:50:49;;;;;;;8.52;7.43;;;12.10;94.30;;;;;;5054946;28;20437;-68
2021/09/23 05:53:16;;;;;;;6.03;5.25;;;12.00;94.30;;;;;;5069828;28;20044;-70
2021/09/23 05:55:44;;;;;;;6.35;5.55;;;12.00;94.40;;;;;;5054981;28;20063;-70
2021/09/23 05:58:11;;;;;;;6.25;4.28;;;12.00;94.20;;;;;;5057643;28;20116;-70
2021/09/23 06:00:38;;;;;;;6.35;4.45;;;12.00;94.70;;;;;;5062405;28;20389;-71
2021/09/23 06:03:05;;;;;;;5.95;3.75;;;12.10;94.70;;;;;;5068055;28;20480;-70
2021/09/23 06:05:32;;;;;;;5.60;3.95;;;12.10;94.70;;;;;;5069943;28;20108;-67
2021/09/23 06:08:01;;;;;;;38.42;28.38;;;12.10;94.60;;;;;;5057764;28;20130;-67
2021/09/23 06:10:28;;;;;;;15.40;11.60;;;12.10;94.70;;;;;;5074083;28;20122;-67
2021/09/23 06:12:55;;;;;;;7.00;6.05;;;12.20;94.40;;;;;;5082055;28;20052;-68
2021/09/23 06:15:22;;;;;;;4.30;3.20;;;12.20;94.30;;;;;;5073511;28;20052;-67
2021/09/23 06:17:50;;;;;;;3.83;3.08;;;12.30;94.40;;;;;;5054717;28;20404;-67
2021/09/23 06:20:18;;;;;;;3.75;2.90;;;12.30;94.40;;;;;;5072241;28;20044;-66
2021/09/23 06:22:51;;;;;;;4.45;3.10;;;12.30;94.40;;;;;;5043557;28;20052;-67
2021/09/23 06:25:18;;;;;;;6.60;2.83;;;12.30;94.40;;;;;;5055232;28;20090;-66
2021/09/23 06:27:45;;;;;;;3.60;2.60;;;12.40;94.40;;;;;;5073244;28;20052;-67
2021/09/23 06:30:17;;;;;;;4.47;2.92;;;12.40;94.30;;;;;;5054689;28;20072;-68
2021/09/23 06:32:44;;;;;;;2.88;2.50;;;12.50;94.40;;;;;;5054770;28;20090;-68
2021/09/23 06:35:11;;;;;;;4.85;2.60;;;12.50;94.40;;;;;;5054538;28;20072;-67
2021/09/23 06:37:44;;;;;;;4.00;2.60;;;12.60;94.30;;;;;;5055478;28;20055;-66
2021/09/23 06:40:12;;;;;;;5.45;2.72;;;12.60;94.10;;;;;;5038728;28;20084;-68
2021/09/23 06:42:39;;;;;;;5.15;2.40;;;12.70;94.10;;;;;;5081089;28;20057;-66
2021/09/23 06:45:06;;;;;;;4.95;2.22;;;12.80;94.00;;;;;;5073589;28;20400;-65
2021/09/23 06:47:33;;;;;;;5.15;3.05;;;12.80;93.90;;;;;;5054672;28;20066;-66
2021/09/23 06:50:01;;;;;;;4.10;2.75;;;12.90;93.90;;;;;;5064301;28;20052;-67
2021/09/23 06:52:28;;;;;;;5.47;2.60;;;12.90;93.80;;;;;;5060924;28;20082;-66
2021/09/23 06:54:55;;;;;;;10.80;3.50;;;13.00;93.90;;;;;;5078398;28;20056;-66
2021/09/23 06:57:22;;;;;;;7.93;2.97;;;13.00;93.80;;;;;;5056404;28;20045;-66
2021/09/23 06:59:49;;;;;;;4.25;2.90;;;13.00;93.80;;;;;;5072667;28;20037;-66
2021/09/23 07:02:16;;;;;;;12.70;9.70;;;13.10;93.90;;;;;;5072643;28;20132;-66
2021/09/23 07:04:44;;;;;;;101.43;80.75;;;13.20;93.80;;;;;;5056775;28;20052;-66
2021/09/23 07:07:11;;;;;;;10.75;8.07;;;13.20;93.60;;;;;;5057503;28;20049;-68
2021/09/23 07:09:38;;;;;;;6.50;4.68;;;13.30;93.50;;;;;;5058084;28;20480;-68
2021/09/23 07:12:05;;;;;;;6.00;3.92;;;13.40;93.40;;;;;;5081156;28;20048;-67
2021/09/23 07:14:32;;;;;;;7.28;3.92;;;13.40;93.50;;;;;;5063302;28;20387;-68
2021/09/23 07:16:59;;;;;;;8.38;3.72;;;13.50;93.50;;;;;;5072261;28;20099;-68
2021/09/23 07:19:26;;;;;;;4.30;2.78;;;13.60;93.20;;;;;;5062095;28;20549;-68
2021/09/23 07:21:54;;;;;;;4.43;3.17;;;13.60;93.00;;;;;;5053849;28;20076;-68
2021/09/23 07:24:21;;;;;;;7.25;2.95;;;13.70;92.70;;;;;;5072938;28;20056;-68
2021/09/23 07:26:48;;;;;;;4.85;3.15;;;13.80;92.80;;;;;;5072749;28;20441;-67
2021/09/23 07:29:16;;;;;;;5.60;3.20;;;13.90;92.50;;;;;;5073158;28;20080;-67
2021/09/23 07:31:44;;;;;;;6.75;2.95;;;13.90;92.60;;;;;;5040665;28;20054;-66
2021/09/23 07:34:11;;;;;;;5.82;3.55;;;14.00;92.50;;;;;;5054790;28;20140;-68
2021/09/23 07:36:38;;;;;;;3.67;2.53;;;14.00;92.30;;;;;;5072684;28;20072;-67
2021/09/23 07:39:07;;;;;;;6.63;2.60;;;14.10;92.50;;;;;;5084088;28;20051;-67
2021/09/23 07:41:37;;;;;;;6.63;2.80;;;14.20;92.20;;;;;;5064686;28;20056;-68
2021/09/23 07:44:08;;;;;;;4.80;2.40;;;14.20;92.20;;;;;;5080712;28;20514;-69
2021/09/23 07:46:35;;;;;;;5.85;3.15;;;14.30;92.20;;;;;;5039851;28;20055;-69
2021/09/23 07:49:03;;;;;;;4.65;2.63;;;14.30;92.00;;;;;;5058893;28;20110;-69
2021/09/23 07:51:30;;;;;;;6.00;2.53;;;14.40;91.70;;;;;;5077010;28;20464;-69
2021/09/23 07:53:57;;;;;;;6.95;3.42;;;14.50;91.60;;;;;;5071516;28;20047;-69
2021/09/23 07:56:24;;;;;;;6.30;3.00;;;14.50;91.60;;;;;;5068736;28;20075;-69
2021/09/23 07:58:51;;;;;;;7.32;3.15;;;14.60;91.70;;;;;;5088824;28;20055;-69
2021/09/23 08:01:18;;;;;;;6.88;2.70;;;14.60;91.50;;;;;;5078546;28;20076;-70
2021/09/23 08:03:46;;;;;;;5.72;3.58;;;14.70;91.50;;;;;;5079126;28;20071;-70
2021/09/23 08:06:13;;;;;;;7.63;3.42;;;14.70;91.30;;;;;;5078510;28;20045;-70
2021/09/23 08:08:40;;;;;;;8.63;2.85;;;14.80;91.40;;;;;;5071141;28;20048;-71
2021/09/23 08:11:07;;;;;;;7.53;2.95;;;14.80;91.10;;;;;;5081140;28;20404;-69
2021/09/23 08:13:34;;;;;;;7.88;3.05;;;14.80;91.00;;;;;;5081639;28;20045;-69
2021/09/23 08:16:01;;;;;;;6.18;2.70;;;14.90;91.10;;;;;;5072206;28;20040;-69
2021/09/23 08:18:29;;;;;;;5.18;2.70;;;14.90;91.20;;;;;;5080708;28;20043;-70
2021/09/23 08:20:56;;;;;;;13.52;8.30;;;15.00;91.10;;;;;;5082154;28;20052;-69
2021/09/23 08:23:23;;;;;;;6.40;3.30;;;15.00;90.90;;;;;;5084818;28;20121;-69
2021/09/23 08:25:52;;;;;;;5.18;2.90;;;15.10;90.70;;;;;;5072368;28;20116;-68
2021/09/23 08:28:23;;;;;;;6.25;2.67;;;15.20;90.80;;;;;;5059279;28;20054;-66
2021/09/23 08:30:50;;;;;;;5.03;2.58;;;15.20;90.50;;;;;;5060627;28;20044;-67
2021/09/23 08:33:18;;;;;;;5.40;2.88;;;15.20;90.60;;;;;;5071028;28;20059;-76
2021/09/23 08:35:45;;;;;;;7.30;3.88;;;15.30;90.50;;;;;;5053087;28;20049;-67
2021/09/23 08:38:12;;;;;;;5.40;2.65;;;15.20;90.30;;;;;;5070934;28;20040;-67
2021/09/23 08:40:39;;;;;;;4.68;2.72;;;15.30;90.30;;;;;;5072035;28;20109;-68
2021/09/23 08:43:06;;;;;;;8.57;2.80;;;15.30;90.50;;;;;;5078194;28;20044;-67
2021/09/23 08:45:37;;;;;;;6.82;3.13;;;15.30;90.30;;;;;;5053934;28;20041;-68
2021/09/23 08:48:05;;;;;;;8.38;3.40;;;15.40;90.50;;;;;;5036559;28;20105;-67
2021/09/23 08:50:32;;;;;;;4.68;2.60;;;15.40;90.30;;;;;;5036366;28;20044;-68
2021/09/23 08:52:59;;;;;;;7.78;2.45;;;15.50;90.20;;;;;;5037089;28;20118;-69
2021/09/23 08:55:28;;;;;;;3.65;2.65;;;15.50;90.20;;;;;;5036545;28;20056;-68
2021/09/23 08:57:55;;;;;;;6.40;3.05;;;15.60;90.10;;;;;;5065140;28;21025;-67
2021/09/23 09:00:22;;;;;;;6.20;3.10;;;15.60;90.40;;;;;;5057726;28;20115;-67
2021/09/23 09:03:03;;;;;;;5.22;3.00;;;15.70;90.10;;;;;;5087822;28;20147;-66
2021/09/23 09:05:31;;;;;;;5.97;2.70;;;15.80;89.50;;;;;;5071301;28;20541;-67
2021/09/23 09:08:13;;;;;;;4.57;2.85;;;15.90;89.80;;;;;;5072809;28;20188;-67
2021/09/23 09:10:40;;;;;;;5.57;2.75;;;16.00;89.40;;;;;;5054250;28;20162;-66
2021/09/23 09:13:08;;;;;;;5.70;3.15;;;16.10;89.30;;;;;;5061614;28;20056;-66
2021/09/23 09:15:40;;;;;;;5.90;2.55;;;16.20;89.90;;;;;;5043716;28;20416;-66
2021/09/23 09:18:26;;;;;;;71.82;63.50;;;16.30;89.00;;;;;;5070455;28;20452;-66
2021/09/23 09:21:07;;;;;;;37.47;29.80;;;16.40;88.40;;;;;;5052538;28;20072;-65
2021/09/23 09:23:57;;;;;;;9.95;7.20;;;16.50;88.30;;;;;;5044198;28;20890;-68
2021/09/23 09:26:33;;;;;;;6.45;3.22;;;16.60;87.90;;;;;;5065661;28;20142;-67
2021/09/23 09:29:03;;;;;;;4.95;2.85;;;16.60;87.30;;;;;;5050735;28;20541;-66
2021/09/23 09:31:30;;;;;;;5.47;3.03;;;16.60;86.90;;;;;;5040855;28;20457;-66
2021/09/23 09:34:01;;;;;;;5.63;2.90;;;16.60;88.00;;;;;;5052141;28;20060;-65
2021/09/23 09:36:32;;;;;;;5.70;2.80;;;16.60;87.70;;;;;;5052108;28;20037;-66
2021/09/23 09:39:14;;;;;;;6.30;3.38;;;16.60;87.90;;;;;;5057406;28;20052;-66
2021/09/23 09:41:46;;;;;;;4.32;2.60;;;16.70;87.70;;;;;;5080012;28;20056;-66
2021/09/23 09:44:14;;;;;;;5.68;3.40;;;16.80;87.40;;;;;;5072786;28;20075;-67
2021/09/23 09:46:53;;;;;;;5.90;2.72;;;17.00;87.00;;;;;;5035715;28;20492;-67
2021/09/23 09:49:22;;;;;;;6.47;3.20;;;17.00;86.20;;;;;;5054044;28;20536;-66
2021/09/23 09:51:51;;;;;;;5.25;2.60;;;17.10;86.80;;;;;;5051883;28;20044;-67
2021/09/23 09:54:18;;;;;;;6.10;3.17;;;17.10;86.20;;;;;;5069802;28;20078;-67
2021/09/23 09:56:55;;;;;;;9.68;3.72;;;17.10;86.30;;;;;;5068434;28;20070;-67
2021/09/23 09:59:22;;;;;;;5.25;2.78;;;17.10;86.80;;;;;;5053323;28;20045;-67
2021/09/23 10:01:56;;;;;;;6.32;3.03;;;17.10;86.50;;;;;;5069746;28;20049;-67
2021/09/23 10:04:27;;;;;;;7.28;3.55;;;17.20;86.40;;;;;;5068228;28;20057;-68
2021/09/23 10:06:55;;;;;;;4.55;2.65;;;17.40;88.10;;;;;;5035316;28;20044;-66
2021/09/23 10:09:23;;;;;;;9.07;2.90;;;17.40;85.10;;;;;;5052266;28;20075;-66
2021/09/23 10:11:50;;;;;;;6.03;2.90;;;17.50;85.70;;;;;;5063284;28;20454;-66
2021/09/23 10:14:17;;;;;;;6.53;3.15;;;17.60;86.20;;;;;;5072934;28;20051;-66
2021/09/23 10:16:45;;;;;;;7.15;2.80;;;17.80;85.80;;;;;;5069738;28;20056;-66
2021/09/23 10:19:13;;;;;;;;;;;17.90;84.80;;;;;;5069934;28;20059;-67
2021/09/23 10:21:40;;;;;;;7.80;2.60;;;18.00;83.90;;;;;;5069353;28;19924;-67
2021/09/23 10:24:08;;;;;;;6.63;2.97;;;18.10;84.20;;;;;;5069978;28;20072;-67
2021/09/23 10:26:38;;;;;;;6.22;2.75;;;18.20;82.90;;;;;;5051993;28;20059;-66
2021/09/23 10:29:06;;;;;;;6.57;3.17;;;18.20;83.40;;;;;;5051818;28;20056;-67
2021/09/23 10:31:36;;;;;;;7.00;2.88;;;18.30;82.70;;;;;;5051717;28;20076;-67
2021/09/23 10:34:04;;;;;;;5.88;3.00;;;18.30;82.70;;;;;;5069709;28;20452;-66
2021/09/23 10:36:34;;;;;;;8.70;3.28;;;18.30;84.20;;;;;;5055529;28;20048;-67
2021/09/23 10:39:04;;;;;;;29.85;22.98;;;18.30;84.00;;;;;;5062148;28;20052;-68
2021/09/23 10:41:32;;;;;;;7.60;3.83;;;18.40;83.30;;;;;;5035047;28;20140;-67
2021/09/23 10:44:00;;;;;;;4.78;2.65;;;18.40;82.40;;;;;;5029263;28;20052;-68
2021/09/23 10:46:27;;;;;;;5.35;2.55;;;18.50;82.80;;;;;;5028158;28;20467;-69
2021/09/23 10:48:55;;;;;;;6.13;3.33;;;18.60;82.20;;;;;;5010606;28;20053;-71
2021/09/23 10:51:22;;;;;;;9.80;2.60;;;18.70;82.00;;;;;;5017665;28;20180;-69
2021/09/23 10:53:58;;;;;;;6.35;2.75;;;18.90;81.80;;;;;;5037907;28;20511;-75
2021/09/23 10:56:26;;;;;;;5.72;2.72;;;19.00;81.80;;;;;;5032242;28;20057;-68
2021/09/23 10:58:53;;;;;;;5.97;2.77;;;19.00;81.00;;;;;;5034646;28;20052;-69
2021/09/23 11:01:25;;;;;;;4.60;2.30;;;19.00;82.00;;;;;;5033555;28;20344;-68
2021/09/23 11:03:56;;;;;;;4.85;2.50;;;19.20;81.20;;;;;;5033193;28;20049;-69
2021/09/23 11:06:35;;;;;;;10.88;3.08;;;19.30;80.50;;;;;;5030819;28;20048;-68
2021/09/23 11:09:35;;;;;;;;;;;19.40;81.20;;;;;;5030957;28;20095;-70
2021/09/23 11:12:06;;;;;;;6.22;2.58;;;19.50;80.50;;;;;;5025595;28;20436;-67
2021/09/23 11:14:33;;;;;;;9.13;3.65;;;19.60;80.10;;;;;;5030914;28;20049;-69
2021/09/23 11:17:00;;;;;;;7.18;3.17;;;19.60;79.90;;;;;;5033293;28;20046;-70
2021/09/23 11:19:27;;;;;;;9.15;3.80;;;19.60;80.10;;;;;;5043554;28;20389;-69
2021/09/23 11:21:56;;;;;;;6.68;3.15;;;19.60;79.80;;;;;;5032217;28;20053;-69
2021/09/23 11:24:24;;;;;;;12.07;3.53;;;19.50;79.90;;;;;;5031284;28;20434;-69
2021/09/23 11:26:52;;;;;;;7.35;2.85;;;19.60;80.50;;;;;;5015723;28;20058;-69
2021/09/23 11:29:20;;;;;;;8.23;2.92;;;19.60;79.70;;;;;;5031084;28;20056;-71
2021/09/23 11:31:51;;;;;;;7.47;2.30;;;19.60;80.50;;;;;;5031448;28;20049;-69
2021/09/23 11:34:38;;;;;;;16.02;10.80;;;19.60;80.40;;;;;;5039410;28;20049;-70
2021/09/23 11:37:07;;;;;;;16.75;4.68;;;19.60;79.50;;;;;;5038983;28;20076;-70
2021/09/23 11:39:34;;;;;;;9.95;3.53;;;19.60;80.10;;;;;;5032830;28;20119;-72
2021/09/23 11:42:12;;;;;;;6.22;2.38;;;19.60;79.70;;;;;;5033131;28;20061;-72
2021/09/23 11:44:39;;;;;;;9.10;2.85;;;19.60;79.70;;;;;;5034898;28;20048;-71
2021/09/23 11:47:21;;;;;;;5.85;3.15;;;19.60;80.50;;;;;;5031444;28;20041;-72
2021/09/23 11:49:50;;;;;;;10.43;3.05;;;19.70;80.10;;;;;;5031624;28;20077;-72
2021/09/23 11:52:17;;;;;;;10.02;2.55;;;19.80;79.70;;;;;;5029721;28;20049;-72
2021/09/23 11:54:45;;;;;;;5.65;2.63;;;19.80;79.50;;;;;;5031498;28;20037;-72
2021/09/23 11:57:25;;;;;;;5.63;2.40;;;19.90;79.70;;;;;;5032278;28;20042;-74
2021/09/23 12:00:00;;;;;;;6.18;3.13;;;20.10;80.40;;;;;;5027619;28;20096;-73
2021/09/23 12:02:28;;;;;;;6.50;2.50;;;20.30;78.30;;;;;;5028879;28;20057;-75
2021/09/23 12:05:01;;;;;;;7.57;2.55;;;20.40;78.90;;;;;;5029170;28;20049;-71
2021/09/23 12:07:31;;;;;;;8.07;2.50;;;20.50;78.30;;;;;;5030125;28;20083;-72
2021/09/23 12:10:06;;;;;;;8.60;2.70;;;20.60;77.00;;;;;;5044417;28;20057;-75
2021/09/23 12:12:33;;;;;;;10.02;2.55;;;20.60;77.60;;;;;;5043821;28;20386;-73
2021/09/23 12:15:01;;;;;;;5.20;2.78;;;20.70;76.90;;;;;;5028832;28;20057;-73
2021/09/23 12:17:28;;;;;;;4.53;2.20;;;20.70;77.60;;;;;;5029643;28;20050;-74
2021/09/23 12:19:56;;;;;;;40.42;33.15;;;20.80;77.90;;;;;;5028455;28;20080;-73
2021/09/23 12:22:34;;;;;;;8.00;4.22;;;20.80;77.50;;;;;;5028143;28;20053;-70
2021/09/23 12:25:10;;;;;;;8.57;3.22;;;20.90;77.60;;;;;;5027320;28;20492;-73
2021/09/23 12:27:38;;;;;;;6.55;2.55;;;20.90;76.70;;;;;;5024828;28;20060;-73
2021/09/23 12:30:07;;;;;;;7.68;2.50;;;20.90;77.90;;;;;;5010626;28;20076;-71
2021/09/23 12:32:37;;;;;;;6.45;2.50;;;20.90;77.60;;;;;;5038723;28;20052;-71
2021/09/23 12:35:18;;;;;;;8.38;2.63;;;21.00;77.00;;;;;;5033558;28;20135;-70
2021/09/23 12:37:45;;;;;;;19.25;16.15;;;21.00;76.20;;;;;;5026585;28;20485;-74
2021/09/23 12:40:13;;;;;;;16.90;12.57;;;21.10;76.40;;;;;;5046352;28;20099;-80
2021/09/23 12:42:40;;;;;;;5.10;3.13;;;21.10;77.20;;;;;;5071778;28;20056;-70
2021/09/23 12:45:15;;;;;;;4.30;2.42;;;21.20;76.40;;;;;;5071348;28;20140;-70
2021/09/23 12:47:53;;;;;;;7.68;3.03;;;21.30;77.10;;;;;;5053088;28;20451;-73
2021/09/23 12:50:21;;;;;;;5.55;2.22;;;21.40;75.30;;;;;;5069237;28;20403;-71
2021/09/23 12:52:49;;;;;;;5.47;2.53;;;21.40;75.30;;;;;;5039202;28;20049;-71